Time;durP1;ratioP1;P1;durP2;ratioP2;P2;SDS_P1;SDS_P2;PMS_P1;PMS_P2;Temp;Humidity;BMP_temperature;BMP_pressure;BME280_temperature;BME280_humidity;BME280_pressure;Samples;Min_cycle;Max_cycle;Signal;HPM_P1;HPM_P2
2023/08/28 00:03:53;;;;;;;5.03;2.80;;;;;;;11.94;100.00;100947.34;10418417;28;20053;-71
2023/08/28 00:08:53;;;;;;;12.40;3.03;;;;;;;12.00;100.00;100938.84;10437561;28;20081;-71
2023/08/28 00:13:54;;;;;;;4.45;2.25;;;;;;;12.02;100.00;100936.66;10436304;28;20044;-70
2023/08/28 00:18:55;;;;;;;6.97;2.42;;;;;;;11.98;100.00;100942.97;10444073;28;20059;-70
2023/08/28 00:23:55;;;;;;;4.68;2.75;;;;;;;11.96;100.00;100948.75;10419873;28;20060;-71
2023/08/28 00:28:55;;;;;;;5.55;2.88;;;;;;;11.95;100.00;100937.97;10441597;28;20064;-71
2023/08/28 00:33:56;;;;;;;5.43;2.65;;;;;;;11.90;100.00;100934.06;10438510;28;20041;-71
2023/08/28 00:38:57;;;;;;;6.63;2.67;;;;;;;11.89;100.00;100931.59;10441098;28;20033;-71
2023/08/28 00:43:57;;;;;;;7.35;2.38;;;;;;;11.79;100.00;100926.75;10443434;28;20401;-71
2023/08/28 00:48:58;;;;;;;2.70;1.98;;;;;;;11.72;100.00;100923.41;10440139;28;20044;-70
2023/08/28 00:53:58;;;;;;;7.07;2.63;;;;;;;11.71;100.00;100927.25;10439686;28;20083;-71
2023/08/28 00:58:58;;;;;;;4.47;2.15;;;;;;;11.64;100.00;100921.13;10436143;28;20041;-66
2023/08/28 01:03:59;;;;;;;5.03;2.35;;;;;;;11.60;100.00;100919.97;10436368;28;20033;-70
2023/08/28 01:09:15;;;;;;;5.97;2.58;;;;;;;11.55;100.00;100917.97;10417884;28;20037;-70
2023/08/28 01:14:19;;;;;;;7.03;3.27;;;;;;;11.49;100.00;100911.59;10423448;28;20071;-70
2023/08/28 01:19:36;;;;;;;7.03;2.97;;;;;;;11.40;100.00;100904.84;10436255;28;20044;-70
2023/08/28 01:24:40;;;;;;;5.15;3.17;;;;;;;11.33;100.00;100893.22;10420195;28;20055;-70
2023/08/28 01:29:40;;;;;;;5.30;2.78;;;;;;;11.27;100.00;100889.56;10419837;28;20132;-70
2023/08/28 01:34:41;;;;;;;5.15;2.95;;;;;;;11.24;100.00;100890.06;10436876;28;20045;-70
2023/08/28 01:39:43;;;;;;;4.30;3.17;;;;;;;11.28;100.00;100879.38;10439449;28;20041;-70
2023/08/28 01:44:43;;;;;;;7.03;3.25;;;;;;;11.22;100.00;100875.72;10422334;28;20068;-70
2023/08/28 01:49:44;;;;;;;6.07;2.85;;;;;;;11.26;100.00;100881.53;10435052;28;20445;-69
2023/08/28 01:54:44;;;;;;;4.60;3.17;;;;;;;11.21;100.00;100884.25;10436091;28;20417;-70
2023/08/28 01:59:44;;;;;;;4.10;2.90;;;;;;;11.20;100.00;100899.94;10415628;28;20041;-70
2023/08/28 02:04:46;;;;;;;5.38;2.85;;;;;;;10.92;100.00;100859.69;10438675;28;20037;-70
2023/08/28 02:09:47;;;;;;;5.50;2.85;;;;;;;11.20;100.00;100926.66;10431641;28;20493;-69
2023/08/28 02:14:47;;;;;;;5.05;3.35;;;;;;;11.16;100.00;100937.38;10431403;28;20072;-70
2023/08/28 02:19:48;;;;;;;5.82;3.83;;;;;;;11.17;100.00;100943.72;10439868;28;20048;-70
2023/08/28 02:24:48;;;;;;;7.40;4.20;;;;;;;11.14;100.00;100938.72;10433187;28;20069;-70
2023/08/28 02:29:49;;;;;;;11.63;5.90;;;;;;;11.03;100.00;100938.59;10436472;28;20045;-70
2023/08/28 02:34:49;;;;;;;7.65;3.85;;;;;;;11.04;100.00;100951.28;10436488;28;20072;-70
2023/08/28 02:39:50;;;;;;;13.05;4.80;;;;;;;11.08;100.00;100955.19;10434165;28;20052;-69
2023/08/28 02:44:50;;;;;;;22.60;9.32;;;;;;;11.10;100.00;100960.47;10436113;28;20041;-70
2023/08/28 02:49:51;;;;;;;19.55;9.00;;;;;;;11.13;100.00;100953.59;10436126;28;20046;-69
2023/08/28 02:54:51;;;;;;;20.65;10.18;;;;;;;11.11;100.00;100946.41;10434120;28;20033;-70
2023/08/28 02:59:52;;;;;;;12.55;7.18;;;;;;;11.03;100.00;100954.28;10432564;28;20033;-69
2023/08/28 03:04:52;;;;;;;8.55;5.00;;;;;;;10.98;100.00;100960.56;10438942;28;20090;-70
2023/08/28 03:09:53;;;;;;;6.82;5.10;;;;;;;10.92;100.00;100961.59;10430931;28;20076;-67
2023/08/28 03:14:54;;;;;;;7.55;4.43;;;;;;;10.86;100.00;100949.66;10439028;28;20049;-70
2023/08/28 03:19:54;;;;;;;9.75;5.07;;;;;;;10.84;100.00;100953.78;10446613;28;20037;-70
2023/08/28 03:24:55;;;;;;;9.63;5.70;;;;;;;10.77;100.00;100961.38;10440112;28;20038;-70
2023/08/28 03:29:56;;;;;;;6.53;4.22;;;;;;;10.79;100.00;100961.94;10444039;28;20480;-70
2023/08/28 03:34:56;;;;;;;12.63;6.03;;;;;;;10.75;100.00;100969.03;10440202;28;20421;-71
2023/08/28 03:39:57;;;;;;;8.98;5.18;;;;;;;10.75;100.00;100983.66;10443682;28;20044;-70
2023/08/28 03:44:57;;;;;;;14.00;5.57;;;;;;;10.83;100.00;100982.38;10443577;28;20037;-70
2023/08/28 03:49:58;;;;;;;15.90;5.80;;;;;;;10.89;100.00;100979.47;10442857;28;20042;-70
2023/08/28 03:54:58;;;;;;;8.63;5.40;;;;;;;10.90;100.00;100983.06;10456836;28;20033;-70
2023/08/28 03:59:59;;;;;;;11.38;6.30;;;;;;;10.86;100.00;100984.66;10437958;28;20037;-71
2023/08/28 04:05:02;;;;;;;13.05;7.30;;;;;;;10.83;100.00;100993.41;10443929;28;20053;-71
2023/08/28 04:10:03;;;;;;;9.82;6.35;;;;;;;10.81;100.00;100981.81;10441662;28;20060;-71
2023/08/28 04:15:08;;;;;;;11.82;5.93;;;;;;;10.73;100.00;100966.56;10438208;28;20057;-69
2023/08/28 04:20:13;;;;;;;9.57;5.93;;;;;;;10.70;100.00;100973.38;10435685;28;20124;-70
2023/08/28 04:25:13;;;;;;;9.85;5.65;;;;;;;10.63;100.00;100964.50;10440314;28;20048;-70
2023/08/28 04:30:14;;;;;;;11.75;6.25;;;;;;;10.60;100.00;100972.41;10442086;28;20037;-70
2023/08/28 04:35:14;;;;;;;13.00;6.22;;;;;;;10.61;100.00;100974.91;10439853;28;20041;-70
2023/08/28 04:40:15;;;;;;;15.30;7.35;;;;;;;10.63;100.00;100978.25;10437895;28;20562;-69
2023/08/28 04:45:15;;;;;;;10.43;6.97;;;;;;;10.64;100.00;100985.41;10435879;28;20449;-70
2023/08/28 04:50:16;;;;;;;17.15;8.00;;;;;;;10.68;100.00;100996.75;10442788;28;20562;-70
2023/08/28 04:55:16;;;;;;;14.57;7.20;;;;;;;10.72;100.00;100997.94;10431712;28;20489;-70
2023/08/28 05:00:17;;;;;;;13.70;7.47;;;;;;;10.70;100.00;101006.44;10437487;28;20521;-70
2023/08/28 05:05:17;;;;;;;13.35;7.20;;;;;;;10.65;100.00;101002.78;10437721;28;20456;-66
2023/08/28 05:10:18;;;;;;;16.30;7.32;;;;;;;10.63;100.00;101004.97;10439154;28;21265;-70
2023/08/28 05:15:18;;;;;;;11.95;6.90;;;;;;;10.66;100.00;101002.53;10426249;28;20037;-70
2023/08/28 05:20:19;;;;;;;13.27;7.28;;;;;;;10.66;100.00;101005.28;10432688;28;20048;-70
2023/08/28 05:25:19;;;;;;;16.95;7.47;;;;;;;10.73;100.00;101005.13;10439422;28;20049;-70
2023/08/28 05:30:20;;;;;;;13.38;7.55;;;;;;;10.75;100.00;101013.09;10435637;28;20037;-69
2023/08/28 05:35:20;;;;;;;12.35;7.35;;;;;;;10.80;100.00;100996.69;10430411;28;20046;-70
2023/08/28 05:40:21;;;;;;;13.43;7.90;;;;;;;10.88;100.00;100996.25;10441112;28;20075;-69
2023/08/28 05:45:21;;;;;;;13.88;9.05;;;;;;;10.99;100.00;100998.03;10439813;28;20040;-69
2023/08/28 05:50:21;;;;;;;19.50;10.55;;;;;;;11.17;100.00;100998.84;10433410;28;20403;-70
2023/08/28 05:55:22;;;;;;;14.82;9.25;;;;;;;11.39;100.00;100988.66;10440077;28;20052;-69
2023/08/28 06:00:23;;;;;;;16.67;9.60;;;;;;;11.63;100.00;100994.72;10430735;28;20048;-70
2023/08/28 06:05:23;;;;;;;23.92;11.88;;;;;;;11.84;100.00;100998.53;10416638;28;20044;-69
2023/08/28 06:10:23;;;;;;;17.27;10.23;;;;;;;12.02;100.00;100993.78;10435975;28;20616;-70
2023/08/28 06:15:25;;;;;;;17.55;10.70;;;;;;;12.18;100.00;101001.13;10435837;28;20489;-70
2023/08/28 06:20:25;;;;;;;15.70;10.20;;;;;;;12.42;100.00;100998.00;10435140;28;20056;-70
2023/08/28 06:25:26;;;;;;;14.60;10.25;;;;;;;12.63;100.00;101005.34;10434001;28;20072;-70
2023/08/28 06:30:26;;;;;;;16.25;8.73;;;;;;;12.81;100.00;101019.84;10432349;28;20041;-70
2023/08/28 06:35:27;;;;;;;14.02;7.47;;;;;;;12.97;100.00;101032.66;10434405;28;20042;-70
2023/08/28 06:40:28;;;;;;;8.55;6.50;;;;;;;13.22;100.00;101031.13;10435129;28;20044;-70
2023/08/28 06:45:28;;;;;;;11.95;6.03;;;;;;;13.38;100.00;101038.44;10432395;28;20041;-71
2023/08/28 06:50:29;;;;;;;10.35;5.80;;;;;;;13.65;100.00;101031.94;10434300;28;20425;-70
2023/08/28 06:55:30;;;;;;;8.48;5.63;;;;;;;13.86;100.00;101033.63;10430752;28;20056;-70
2023/08/28 07:00:30;;;;;;;10.95;5.45;;;;;;;14.06;100.00;101043.94;10411702;28;20072;-69
2023/08/28 07:05:31;;;;;;;9.38;5.90;;;;;;;14.29;100.00;101050.91;10432126;28;20080;-70
2023/08/28 07:10:31;;;;;;;10.82;4.65;;;;;;;14.48;100.00;101065.03;10438715;28;20038;-69
2023/08/28 07:15:32;;;;;;;8.07;5.20;;;;;;;14.66;100.00;101058.16;10424118;28;20056;-70
2023/08/28 07:20:32;;;;;;;4.32;3.83;;;;;;;14.85;100.00;101071.47;10434354;28;20060;-69
2023/08/28 07:25:33;;;;;;;5.97;4.38;;;;;;;15.02;100.00;101083.06;10419004;28;20042;-70
2023/08/28 07:30:33;;;;;;;5.97;3.67;;;;;;;15.09;100.00;101078.09;10402732;28;20057;-70
2023/08/28 07:35:35;;;;;;;9.48;4.70;;;;;;;15.25;100.00;101086.38;10416228;28;20037;-69
2023/08/28 07:40:35;;;;;;;3.65;2.95;;;;;;;15.44;100.00;101095.75;10415320;28;20041;-68
2023/08/28 07:45:36;;;;;;;5.63;2.90;;;;;;;15.60;100.00;101099.31;10415816;28;20033;-69
2023/08/28 07:50:37;;;;;;;5.95;2.42;;;;;;;15.71;100.00;101098.16;10418020;28;20131;-69
2023/08/28 07:55:38;;;;;;;3.97;2.53;;;;;;;15.90;100.00;101097.56;10414403;28;20077;-66
2023/08/28 08:00:40;;;;;;;3.92;2.20;;;;;;;16.07;100.00;101105.53;10415115;28;20102;-69
2023/08/28 08:05:41;;;;;;;3.72;1.90;;;;;;;16.20;100.00;101099.34;10408966;28;20049;-69
2023/08/28 08:10:41;;;;;;;6.05;1.60;;;;;;;16.41;100.00;101110.31;10417381;28;20120;-68
2023/08/28 08:15:42;;;;;;;2.17;1.15;;;;;;;16.54;100.00;101113.31;10442538;28;20044;-68
2023/08/28 08:20:43;;;;;;;2.85;0.95;;;;;;;16.62;100.00;101111.88;10442471;28;20037;-69
2023/08/28 08:25:43;;;;;;;2.78;1.30;;;;;;;16.84;100.00;101105.03;10438520;28;20033;-69
2023/08/28 08:30:44;;;;;;;2.95;0.90;;;;;;;17.09;100.00;101107.59;10440127;28;20033;-69
2023/08/28 08:35:45;;;;;;;6.63;1.77;;;;;;;17.30;100.00;101107.38;10440023;28;20045;-68
2023/08/28 08:40:45;;;;;;;3.60;0.98;;;;;;;17.54;100.00;101099.06;10440520;28;20036;-69
2023/08/28 08:45:46;;;;;;;2.00;0.82;;;;;;;17.71;100.00;101106.94;10419168;28;20033;-70
2023/08/28 08:50:47;;;;;;;3.03;0.98;;;;;;;17.80;100.00;101104.31;10435645;28;20041;-69
2023/08/28 08:55:47;;;;;;;1.02;0.50;;;;;;;18.07;100.00;101101.78;10439617;28;20033;-69
2023/08/28 09:00:48;;;;;;;1.60;0.50;;;;;;;18.39;100.00;101107.75;10418349;28;20033;-66
2023/08/28 09:05:49;;;;;;;1.77;0.50;;;;;;;18.84;100.00;101099.81;10439593;28;20048;-69
2023/08/28 09:10:49;;;;;;;1.77;0.47;;;;;;;19.07;100.00;101095.25;10403816;28;20088;-69
2023/08/28 09:15:50;;;;;;;3.10;0.40;;;;;;;19.28;100.00;101092.91;10443752;28;20041;-69
2023/08/28 09:21:10;;;;;;;2.35;1.08;;;;;;;19.62;100.00;101086.13;10435596;28;20464;-68
2023/08/28 09:26:15;;;;;;;1.20;0.40;;;;;;;19.99;100.00;101082.28;10428838;28;20037;-68
2023/08/28 09:31:26;;;;;;;2.97;0.63;;;;;;;19.77;100.00;101091.41;10436166;28;20036;-69
2023/08/28 09:36:27;;;;;;;1.70;0.60;;;;;;;19.27;100.00;101102.41;10432898;28;20037;-68
2023/08/28 09:41:45;;;;;;;1.42;0.40;;;;;;;18.50;100.00;101107.31;10437716;28;20068;-69
2023/08/28 09:46:46;;;;;;;1.83;0.63;;;;;;;18.64;100.00;101112.91;10404082;28;20047;-70
2023/08/28 09:51:50;;;;;;;2.15;0.73;;;;;;;19.39;100.00;101105.53;10415529;28;20037;-70
2023/08/28 09:56:51;;;;;;;1.63;0.57;;;;;;;19.79;100.00;101096.69;10432084;28;20057;-69
2023/08/28 10:01:51;;;;;;;2.47;0.65;;;;;;;20.24;100.00;101097.66;10433978;28;20068;-71
2023/08/28 10:06:53;;;;;;;2.65;0.50;;;;;;;20.55;100.00;101080.16;10416607;28;20045;-70
2023/08/28 10:12:13;;;;;;;1.45;0.30;;;;;;;21.27;100.00;101084.78;10417374;28;20037;-70
2023/08/28 10:17:32;;;;;;;1.10;0.32;;;;;;;21.51;100.00;101038.75;10390895;28;20042;-68
2023/08/28 10:22:51;;;;;;;0.90;0.40;;;;;;;21.74;100.00;101064.69;10368238;28;20065;-69
2023/08/28 10:28:10;;;;;;;3.28;0.55;;;;;;;21.48;100.00;101073.03;10359419;28;20042;-69
2023/08/28 10:33:30;;;;;;;2.65;0.30;;;;;;;20.78;100.00;101078.22;10410040;28;20068;-68
2023/08/28 10:38:50;;;;;;;1.08;0.38;;;;;;;20.22;100.00;101079.53;10418935;28;20045;-69
2023/08/28 10:43:51;;;;;;;2.05;0.40;;;;;;;19.98;100.00;101089.00;10438501;28;20041;-69
2023/08/28 10:48:57;;;;;;;1.83;0.60;;;;;;;19.59;100.00;101092.31;10434560;28;20036;-68
2023/08/28 10:54:04;;;;;;;1.90;0.50;;;;;;;19.36;100.00;101106.97;10434628;28;20038;-70
2023/08/28 10:59:26;;;;;;;4.15;0.50;;;;;;;19.08;100.00;101128.44;10435659;28;20037;-68
2023/08/28 11:04:35;;;;;;;1.92;0.55;;;;;;;18.45;100.00;101131.63;10430578;28;20041;-69
2023/08/28 11:09:36;;;;;;;1.05;0.47;;;;;;;18.14;100.00;101154.34;10419382;28;20070;-69
2023/08/28 11:14:43;;;;;;;0.88;0.38;;;;;;;18.07;100.00;101149.16;10406318;28;20444;-69
2023/08/28 11:19:55;;;;;;;0.85;0.50;;;;;;;18.03;100.00;101147.25;10414483;28;20053;-69
2023/08/28 11:24:56;;;;;;;0.75;0.30;;;;;;;17.88;100.00;101107.31;10423433;28;20041;-69
2023/08/28 11:29:56;;;;;;;2.28;0.30;;;;;;;18.02;100.00;101140.84;10413355;28;20045;-69
2023/08/28 11:34:59;;;;;;;1.42;0.40;;;;;;;18.04;100.00;101157.25;10419852;28;20036;-69
2023/08/28 11:39:59;;;;;;;1.15;0.40;;;;;;;18.10;100.00;101158.84;10438578;28;20517;-70
2023/08/28 11:45:00;;;;;;;1.20;0.50;;;;;;;18.22;100.00;101159.25;10441498;28;20071;-71
2023/08/28 11:50:03;;;;;;;4.38;0.73;;;;;;;18.37;100.00;101157.41;10441155;28;20053;-70
2023/08/28 11:55:04;;;;;;;1.83;0.40;;;;;;;18.52;100.00;101149.66;10438765;28;20477;-70
2023/08/28 12:00:09;;;;;;;2.90;0.80;;;;;;;18.70;100.00;101139.59;10423354;28;20079;-69
2023/08/28 12:05:10;;;;;;;2.08;0.40;;;;;;;18.77;100.00;101139.25;10441312;28;20509;-68
2023/08/28 12:10:14;;;;;;;0.65;0.50;;;;;;;18.90;100.00;101141.28;10429198;28;20056;-68
2023/08/28 12:15:15;;;;;;;1.48;0.70;;;;;;;18.79;100.00;101125.00;10408868;28;20425;-68
2023/08/28 12:20:19;;;;;;;4.15;0.60;;;;;;;18.83;100.00;101117.69;10422301;28;20413;-68
2023/08/28 12:25:31;;;;;;;1.73;0.60;;;;;;;18.98;100.00;101100.69;10426794;28;20832;-68
2023/08/28 12:30:31;;;;;;;1.83;0.80;;;;;;;19.27;100.00;101099.63;10434460;28;20037;-68
2023/08/28 12:35:39;;;;;;;0.70;0.30;;;;;;;20.51;100.00;101090.31;10428162;28;20046;-68
2023/08/28 12:40:42;;;;;;;2.00;0.55;;;;;;;21.73;100.00;101068.66;10435702;28;20041;-68
2023/08/28 12:45:42;;;;;;;1.45;0.57;;;;;;;22.97;100.00;101058.81;10442616;28;20048;-67
2023/08/28 12:50:43;;;;;;;0.52;0.35;;;;;;;24.14;100.00;101063.25;10437464;28;20621;-68
2023/08/28 12:55:43;;;;;;;0.50;0.20;;;;;;;24.38;100.00;101035.25;10438540;28;20045;-68
2023/08/28 13:00:44;;;;;;;0.30;0.20;;;;;;;24.28;96.22;101034.88;10442670;28;20048;-68
2023/08/28 13:05:44;;;;;;;0.88;0.35;;;;;;;24.50;94.87;101036.53;10433760;28;20120;-67
2023/08/28 13:10:47;;;;;;;1.20;0.30;;;;;;;25.52;100.00;101065.91;10438710;28;20052;-68
2023/08/28 13:15:47;;;;;;;0.65;0.20;;;;;;;25.93;91.26;101046.28;10434749;28;20101;-68
2023/08/28 13:20:48;;;;;;;1.27;0.38;;;;;;;26.33;92.32;101054.75;10417649;28;20053;-68
2023/08/28 13:25:49;;;;;;;1.42;0.40;;;;;;;26.17;89.97;101040.59;10440381;28;20033;-67
2023/08/28 13:30:49;;;;;;;2.10;0.50;;;;;;;26.13;90.62;101041.69;10436905;28;20046;-68
2023/08/28 13:35:50;;;;;;;3.42;0.40;;;;;;;25.92;92.13;101037.03;10428769;28;20033;-68
2023/08/28 13:40:50;;;;;;;2.28;0.35;;;;;;;25.78;91.23;101040.16;10438374;28;20040;-67
2023/08/28 13:45:51;;;;;;;1.00;0.52;;;;;;;25.45;93.29;101045.94;10437285;28;20079;-67
2023/08/28 13:50:51;;;;;;;1.67;0.45;;;;;;;25.81;89.92;101030.16;10432733;28;20076;-67
2023/08/28 13:55:55;;;;;;;1.95;0.70;;;;;;;25.21;90.12;101041.09;10433558;28;20061;-68
2023/08/28 14:00:59;;;;;;;1.15;0.40;;;;;;;25.13;89.30;101036.34;10415711;28;20048;-68
2023/08/28 14:06:03;;;;;;;2.15;0.40;;;;;;;26.18;87.90;101042.22;10434763;28;20040;-68
2023/08/28 14:11:10;;;;;;;0.85;0.65;;;;;;;25.51;86.70;101032.44;10433718;28;20091;-68
2023/08/28 14:16:10;;;;;;;0.82;0.60;;;;;;;25.79;87.97;101038.16;10432802;28;20075;-68
2023/08/28 14:21:11;;;;;;;0.63;0.40;;;;;;;26.57;89.32;101036.94;10433422;28;20041;-68
2023/08/28 14:26:11;;;;;;;1.23;0.50;;;;;;;27.28;86.18;101056.25;10449734;28;20033;-69
2023/08/28 14:31:12;;;;;;;1.58;0.55;;;;;;;25.46;88.44;101058.84;10439724;28;20041;-69
2023/08/28 14:36:12;;;;;;;2.53;0.45;;;;;;;23.58;92.47;101063.41;10426788;28;20048;-68
2023/08/28 14:41:13;;;;;;;2.92;0.95;;;;;;;22.55;100.00;101100.66;10438513;28;20464;-68
2023/08/28 14:46:14;;;;;;;2.78;0.68;;;;;;;22.03;100.00;101108.94;10421358;28;20038;-69
2023/08/28 14:51:15;;;;;;;2.35;0.60;;;;;;;21.81;100.00;101121.13;10437278;28;20045;-68
2023/08/28 14:56:15;;;;;;;1.17;0.80;;;;;;;21.65;100.00;101117.91;10436481;28;20052;-68
2023/08/28 15:01:16;;;;;;;2.28;0.63;;;;;;;21.23;100.00;101138.91;10436395;28;20037;-66
2023/08/28 15:06:17;;;;;;;2.22;0.80;;;;;;;20.75;100.00;101146.84;10444228;28;20512;-67
2023/08/28 15:11:18;;;;;;;2.00;0.70;;;;;;;20.29;100.00;101142.25;10445232;28;20059;-68
2023/08/28 15:16:19;;;;;;;1.15;0.80;;;;;;;20.01;100.00;101155.47;10440441;28;20037;-68
2023/08/28 15:21:19;;;;;;;2.15;0.57;;;;;;;19.85;100.00;101168.91;10441527;28;20118;-68
2023/08/28 15:26:20;;;;;;;2.35;0.75;;;;;;;19.64;100.00;101170.41;10425357;28;20044;-67
2023/08/28 15:31:20;;;;;;;2.20;0.57;;;;;;;19.48;100.00;101159.53;10444308;28;20037;-68
2023/08/28 15:36:21;;;;;;;1.88;0.50;;;;;;;19.41;100.00;101166.63;10444029;28;20049;-69
2023/08/28 15:41:21;;;;;;;1.67;0.65;;;;;;;19.33;100.00;101169.00;10425403;28;20034;-69
2023/08/28 15:46:24;;;;;;;1.08;0.40;;;;;;;19.25;100.00;101175.28;10443218;28;20052;-68
2023/08/28 15:51:24;;;;;;;0.82;0.40;;;;;;;19.21;100.00;101163.09;10428043;28;20033;-68
2023/08/28 15:56:25;;;;;;;2.00;0.70;;;;;;;19.31;100.00;101170.47;10443459;28;20037;-68
2023/08/28 16:01:25;;;;;;;1.35;0.40;;;;;;;19.52;100.00;101174.53;10441339;28;20060;-68
2023/08/28 16:06:26;;;;;;;2.63;0.63;;;;;;;19.74;100.00;101175.81;10410987;28;20038;-67
2023/08/28 16:11:26;;;;;;;2.65;0.82;;;;;;;19.99;100.00;101179.25;10432802;28;20132;-68
2023/08/28 16:16:27;;;;;;;1.38;0.50;;;;;;;20.06;100.00;101185.25;10433823;28;20417;-67
2023/08/28 16:21:28;;;;;;;2.33;0.70;;;;;;;19.98;100.00;101172.00;10439020;28;20434;-68
2023/08/28 16:26:28;;;;;;;0.63;0.45;;;;;;;19.78;100.00;101173.25;10434044;28;20042;-68
2023/08/28 16:31:29;;;;;;;2.65;0.40;;;;;;;19.65;100.00;101172.88;10434601;28;20522;-68
2023/08/28 16:36:30;;;;;;;0.82;0.47;;;;;;;19.70;100.00;101156.06;10437891;28;20193;-67
2023/08/28 16:41:30;;;;;;;0.65;0.40;;;;;;;19.70;100.00;101160.78;10440508;28;20038;-67
2023/08/28 16:46:31;;;;;;;1.80;0.45;;;;;;;19.60;100.00;101166.59;10407092;28;20121;-68
2023/08/28 16:51:32;;;;;;;1.17;0.40;;;;;;;19.29;100.00;101133.66;10432215;28;20063;-68
2023/08/28 16:56:32;;;;;;;1.52;0.40;;;;;;;19.37;100.00;101183.19;10406556;28;20052;-67
2023/08/28 17:01:33;;;;;;;1.98;0.75;;;;;;;19.23;100.00;101173.94;10427124;28;20049;-68
2023/08/28 17:06:34;;;;;;;0.80;0.35;;;;;;;19.11;100.00;101178.03;10440654;28;20041;-66
2023/08/28 17:11:34;;;;;;;2.13;0.50;;;;;;;18.86;100.00;101179.28;10415893;28;20052;-68
2023/08/28 17:16:35;;;;;;;1.08;0.50;;;;;;;18.78;100.00;101181.91;10438900;28;20040;-67
2023/08/28 17:21:35;;;;;;;1.65;0.50;;;;;;;18.58;100.00;101191.38;10439399;28;20048;-67
2023/08/28 17:26:36;;;;;;;1.77;0.50;;;;;;;18.39;100.00;101189.41;10439723;28;20076;-67
2023/08/28 17:31:36;;;;;;;2.10;0.43;;;;;;;18.30;100.00;101186.47;10440820;28;20106;-67
2023/08/28 17:36:37;;;;;;;0.85;0.30;;;;;;;18.09;100.00;101196.22;10420499;28;20067;-67
2023/08/28 17:41:38;;;;;;;1.27;0.50;;;;;;;17.89;100.00;101198.09;10438774;28;20044;-68
2023/08/28 17:46:39;;;;;;;1.23;0.40;;;;;;;17.75;100.00;101208.25;10442277;28;20048;-68
2023/08/28 17:51:40;;;;;;;1.58;0.40;;;;;;;17.62;100.00;101208.97;10418433;28;20037;-67
2023/08/28 17:56:43;;;;;;;1.20;1.10;;;;;;;17.45;100.00;101226.94;10420625;28;20083;-68
2023/08/28 18:01:44;;;;;;;0.52;0.40;;;;;;;17.29;100.00;101230.97;10437464;28;20051;-68
2023/08/28 18:06:46;;;;;;;0.77;0.57;;;;;;;17.11;100.00;101222.19;10419040;28;20116;-68
2023/08/28 18:11:46;;;;;;;1.05;0.77;;;;;;;16.90;100.00;101227.06;10437723;28;20106;-68
2023/08/28 18:16:47;;;;;;;1.05;0.80;;;;;;;16.69;100.00;101226.34;10437586;28;20546;-68
2023/08/28 18:21:47;;;;;;;0.95;0.55;;;;;;;16.47;100.00;101234.22;10422363;28;20033;-68
2023/08/28 18:26:50;;;;;;;1.00;0.50;;;;;;;15.94;100.00;101184.75;10423888;28;20512;-65
2023/08/28 18:31:54;;;;;;;2.53;0.60;;;;;;;15.97;100.00;101236.91;10419219;28;20103;-67
2023/08/28 18:36:54;;;;;;;0.98;0.55;;;;;;;15.71;100.00;101248.06;10436027;28;20120;-68
2023/08/28 18:41:55;;;;;;;1.27;0.90;;;;;;;15.48;100.00;101249.47;10434412;28;20037;-68
2023/08/28 18:46:57;;;;;;;0.93;0.60;;;;;;;15.27;100.00;101262.47;10432977;28;20530;-68
2023/08/28 18:51:58;;;;;;;1.10;0.68;;;;;;;15.02;100.00;101249.44;10419903;28;20592;-68
2023/08/28 18:56:58;;;;;;;1.95;0.80;;;;;;;14.87;100.00;101257.72;10419571;28;20508;-67
2023/08/28 19:01:59;;;;;;;1.45;0.90;;;;;;;14.28;100.00;101196.03;10438244;28;20054;-67
2023/08/28 19:06:59;;;;;;;1.02;0.63;;;;;;;14.57;100.00;101253.75;10434957;28;20053;-68
2023/08/28 19:12:00;;;;;;;1.10;0.75;;;;;;;14.42;100.00;101250.91;10434556;28;20068;-68
2023/08/28 19:17:01;;;;;;;2.05;0.90;;;;;;;14.29;100.00;101255.00;10419682;28;20195;-68
2023/08/28 19:22:01;;;;;;;1.02;0.80;;;;;;;14.18;100.00;101256.91;10432175;28;20044;-68
2023/08/28 19:27:02;;;;;;;1.73;0.90;;;;;;;14.08;100.00;101252.13;10441160;28;20067;-67
2023/08/28 19:32:03;;;;;;;2.03;1.00;;;;;;;14.00;100.00;101246.28;10439218;28;20056;-67
2023/08/28 19:37:04;;;;;;;2.80;0.90;;;;;;;13.89;100.00;101256.44;10432971;28;20115;-68
2023/08/28 19:42:05;;;;;;;2.10;1.08;;;;;;;13.79;100.00;101260.00;10412924;28;20108;-68
2023/08/28 19:47:05;;;;;;;2.60;1.05;;;;;;;13.74;100.00;101257.19;10417658;28;20034;-68
2023/08/28 19:52:08;;;;;;;1.90;1.20;;;;;;;13.66;100.00;101258.53;10442914;28;20037;-68
2023/08/28 19:57:09;;;;;;;1.52;0.93;;;;;;;13.59;100.00;101268.16;10443583;28;20056;-68
2023/08/28 20:02:10;;;;;;;3.38;1.08;;;;;;;13.46;100.00;101270.25;10428338;28;20037;-67
2023/08/28 20:07:11;;;;;;;5.03;1.40;;;;;;;13.40;100.00;101285.16;10407007;28;20057;-68
2023/08/28 20:12:14;;;;;;;3.10;1.35;;;;;;;13.37;100.00;101288.41;10442764;28;20067;-68
2023/08/28 20:17:15;;;;;;;2.15;1.08;;;;;;;13.33;100.00;101301.09;10435336;28;20056;-68
2023/08/28 20:22:15;;;;;;;1.60;1.20;;;;;;;13.26;100.00;101303.22;10422404;28;20417;-69
2023/08/28 20:27:17;;;;;;;2.33;1.52;;;;;;;13.17;100.00;101304.78;10440743;28;20068;-67
2023/08/28 20:32:18;;;;;;;3.20;1.40;;;;;;;13.09;100.00;101295.88;10442144;28;20449;-67
2023/08/28 20:37:18;;;;;;;1.90;1.20;;;;;;;13.04;100.00;101293.09;10438860;28;20041;-66
2023/08/28 20:42:19;;;;;;;2.90;1.20;;;;;;;12.95;100.00;101286.34;10429889;28;20037;-68
2023/08/28 20:47:20;;;;;;;4.90;1.80;;;;;;;12.88;100.00;101294.00;10395193;28;20037;-68
2023/08/28 20:52:20;;;;;;;3.63;2.08;;;;;;;12.56;100.00;101258.81;10410993;28;20045;-69
2023/08/28 20:57:21;;;;;;;3.17;1.80;;;;;;;12.74;100.00;101287.22;10412039;28;20493;-67
2023/08/28 21:02:21;;;;;;;4.05;2.20;;;;;;;12.66;100.00;101281.03;10406227;28;20409;-69
2023/08/28 21:07:22;;;;;;;4.25;2.28;;;;;;;12.61;100.00;101278.22;10388769;28;20555;-70
2023/08/28 21:12:23;;;;;;;4.13;2.58;;;;;;;12.50;100.00;101270.91;10406448;28;20169;-69
2023/08/28 21:17:23;;;;;;;4.80;3.30;;;;;;;12.40;100.00;101265.25;10394776;28;20061;-69
2023/08/28 21:22:24;;;;;;;4.82;3.05;;;;;;;12.28;100.00;101263.47;10397091;28;20064;-69
2023/08/28 21:27:27;;;;;;;3.67;2.53;;;;;;;12.26;100.00;101264.81;10395577;28;20044;-69
2023/08/28 21:32:28;;;;;;;5.32;3.25;;;;;;;12.25;100.00;101268.66;10410625;28;20052;-68
2023/08/28 21:37:28;;;;;;;6.07;3.95;;;;;;;12.07;100.00;101244.94;10394139;28;20045;-69
2023/08/28 21:42:29;;;;;;;8.57;4.75;;;;;;;12.08;100.00;101257.66;10391927;28;20048;-67
2023/08/28 21:47:29;;;;;;;6.60;4.65;;;;;;;12.16;100.00;101276.56;10395671;28;20057;-68
2023/08/28 21:52:30;;;;;;;9.52;5.28;;;;;;;12.17;100.00;101271.84;10396529;28;20053;-67
2023/08/28 21:57:30;;;;;;;8.38;4.35;;;;;;;12.15;100.00;101272.09;10432901;28;20069;-67
2023/08/28 22:02:31;;;;;;;6.50;4.75;;;;;;;12.12;100.00;101275.38;10438000;28;20053;-67
2023/08/28 22:07:31;;;;;;;6.80;4.70;;;;;;;12.04;100.00;101262.03;10444897;28;20052;-67
2023/08/28 22:12:31;;;;;;;6.60;3.80;;;;;;;12.00;100.00;101267.22;10436530;28;20033;-67
2023/08/28 22:17:32;;;;;;;8.60;4.35;;;;;;;11.94;100.00;101268.22;10439629;28;20045;-67
2023/08/28 22:22:32;;;;;;;4.90;3.70;;;;;;;11.86;100.00;101260.34;10437843;28;20085;-68
2023/08/28 22:27:33;;;;;;;7.85;4.20;;;;;;;11.81;100.00;101268.56;10439986;28;20052;-67
2023/08/28 22:32:33;;;;;;;6.32;3.85;;;;;;;11.77;100.00;101259.94;10439480;28;20086;-67
2023/08/28 22:37:34;;;;;;;7.97;4.93;;;;;;;11.71;100.00;101258.19;10440386;28;20460;-68
2023/08/28 22:42:34;;;;;;;14.15;7.88;;;;;;;11.63;100.00;101244.84;10440464;28;20041;-68
2023/08/28 22:47:35;;;;;;;13.23;9.18;;;;;;;11.61;100.00;101247.00;10435580;28;20528;-68
2023/08/28 22:52:35;;;;;;;12.35;8.48;;;;;;;11.58;100.00;101251.13;10433638;28;20053;-68